createdAt,value
2022-09-17T00:00:40.836Z,94.80
2022-09-17T00:03:09.950Z,95.00
2022-09-17T00:05:40.708Z,95.00
2022-09-17T00:08:09.746Z,95.10
2022-09-17T00:10:41.815Z,95.20
2022-09-17T00:13:09.717Z,95.20
2022-09-17T00:15:40.566Z,95.20
2022-09-17T00:18:07.796Z,95.30
2022-09-17T00:20:38.446Z,95.40
2022-09-17T00:23:05.627Z,95.40
2022-09-17T00:25:32.900Z,95.50
2022-09-17T00:28:00.147Z,95.60
2022-09-17T00:30:27.326Z,95.70
2022-09-17T00:32:54.515Z,95.90
2022-09-17T00:35:21.585Z,96.00
2022-09-17T00:37:48.736Z,96.00
2022-09-17T00:40:15.912Z,96.00
2022-09-17T00:42:43.066Z,96.10
2022-09-17T00:45:10.416Z,96.10
2022-09-17T00:47:46.405Z,96.30
2022-09-17T00:50:28.896Z,96.60
2022-09-17T00:52:59.515Z,96.60
2022-09-17T00:55:41.726Z,96.80
2022-09-17T00:58:11.085Z,97.10
2022-09-17T01:00:38.343Z,97.30
2022-09-17T01:03:05.635Z,97.20
2022-09-17T01:05:51.226Z,97.20
2022-09-17T01:08:26.066Z,97.50
2022-09-17T01:10:56.367Z,97.60
2022-09-17T01:13:36.356Z,97.70
2022-09-17T01:16:22.569Z,97.70
2022-09-17T01:18:55.545Z,97.80
2022-09-17T01:21:42.647Z,97.90
2022-09-17T01:24:29.032Z,98.20
2022-09-17T01:27:07.793Z,98.30
2022-09-17T01:29:45.726Z,98.00
2022-09-17T01:32:15.905Z,98.10
2022-09-17T01:34:54.045Z,97.80
2022-09-17T01:37:30.909Z,98.00
2022-09-17T01:40:05.954Z,98.10
2022-09-17T01:42:47.796Z,98.30
2022-09-17T01:45:22.655Z,98.40
2022-09-17T01:47:55.146Z,98.20
2022-09-17T01:50:25.575Z,98.40
2022-09-17T01:52:53.986Z,98.60
2022-09-17T01:55:22.915Z,98.20
2022-09-17T01:57:54.645Z,98.30
2022-09-17T02:00:22.405Z,98.30
2022-09-17T02:02:49.546Z,98.00
2022-09-17T02:05:31.296Z,98.20
2022-09-17T02:08:02.235Z,98.40
2022-09-17T02:10:31.508Z,98.30
2022-09-17T02:13:03.186Z,98.70
2022-09-17T02:15:33.447Z,98.90
2022-09-17T02:18:20.785Z,99.10
2022-09-17T02:20:50.763Z,99.20
2022-09-17T02:23:21.205Z,99.40
2022-09-17T02:25:56.645Z,99.70
2022-09-17T02:28:41.908Z,99.80
2022-09-17T02:31:09.206Z,99.90
2022-09-17T02:33:37.226Z,99.90
2022-09-17T02:36:04.526Z,99.90
2022-09-17T02:38:32.165Z,99.90
2022-09-17T02:41:02.467Z,99.90
2022-09-17T02:43:29.625Z,99.90
2022-09-17T02:46:10.247Z,99.90
2022-09-17T02:48:49.515Z,99.90
2022-09-17T02:51:42.584Z,99.90
2022-09-17T02:54:28.237Z,99.90
2022-09-17T02:57:12.525Z,99.90
2022-09-17T02:59:47.837Z,99.90
2022-09-17T03:02:15.060Z,99.90
2022-09-17T03:04:42.625Z,99.90
2022-09-17T03:07:12.225Z,99.90
2022-09-17T03:09:39.816Z,99.90
2022-09-17T03:12:07.076Z,99.90
2022-09-17T03:14:34.235Z,99.90
2022-09-17T03:17:01.425Z,99.90
2022-09-17T03:19:28.526Z,99.90
2022-09-17T03:21:55.755Z,99.90
2022-09-17T03:24:22.976Z,99.90
2022-09-17T03:26:50.615Z,99.90
2022-09-17T03:29:17.745Z,99.90
2022-09-17T03:31:44.968Z,99.90
2022-09-17T03:34:12.093Z,99.90
2022-09-17T03:36:39.465Z,99.90
2022-09-17T03:39:06.616Z,99.90
2022-09-17T03:41:33.805Z,99.90
2022-09-17T03:44:00.907Z,99.90
2022-09-17T03:46:28.083Z,99.90
2022-09-17T03:48:55.225Z,99.90
2022-09-17T03:51:22.395Z,99.90
2022-09-17T03:53:49.562Z,99.90
2022-09-17T03:56:18.041Z,99.90
2022-09-17T03:58:45.310Z,99.90
2022-09-17T04:01:12.529Z,99.90
2022-09-17T04:03:39.716Z,99.90
2022-09-17T04:06:06.968Z,99.90
2022-09-17T04:08:34.308Z,99.90
2022-09-17T04:11:01.554Z,99.90
2022-09-17T04:13:28.679Z,99.90
2022-09-17T04:15:55.850Z,99.90
2022-09-17T04:18:22.978Z,99.90
2022-09-17T04:20:50.177Z,99.90
2022-09-17T04:23:17.276Z,99.90
2022-09-17T04:25:44.537Z,99.90
2022-09-17T04:28:11.746Z,99.90
2022-09-17T04:30:39.257Z,99.90
2022-09-17T04:33:06.397Z,99.90
2022-09-17T04:35:33.606Z,99.90
2022-09-17T04:38:00.696Z,99.90
2022-09-17T04:40:28.010Z,99.90
2022-09-17T04:42:55.887Z,99.90
2022-09-17T04:45:23.540Z,99.90
2022-09-17T04:47:53.536Z,99.90
2022-09-17T04:50:21.412Z,99.90
2022-09-17T04:52:48.876Z,99.90
2022-09-17T04:55:16.843Z,99.90
2022-09-17T04:57:48.506Z,99.90
2022-09-17T05:00:16.117Z,99.90
2022-09-17T05:02:47.218Z,99.90
2022-09-17T05:05:14.737Z,99.90
2022-09-17T05:07:41.957Z,99.90
2022-09-17T05:10:09.847Z,99.90
2022-09-17T05:12:37.277Z,99.90
2022-09-17T05:15:04.676Z,99.90
2022-09-17T05:17:31.767Z,99.90
2022-09-17T05:19:59.008Z,99.90
2022-09-17T05:22:26.198Z,99.90
2022-09-17T05:24:53.390Z,99.90
2022-09-17T05:27:20.693Z,99.90
2022-09-17T05:29:47.867Z,99.90
2022-09-17T05:32:15.506Z,99.90
2022-09-17T05:34:42.807Z,99.90
2022-09-17T05:37:11.129Z,99.90
2022-09-17T05:39:38.258Z,99.90
2022-09-17T05:42:05.459Z,99.90
2022-09-17T05:44:32.826Z,99.90
2022-09-17T05:47:00.011Z,99.90
2022-09-17T05:49:27.422Z,99.90
2022-09-17T05:51:54.507Z,99.90
2022-09-17T05:54:22.056Z,99.90
2022-09-17T05:56:49.246Z,99.90
2022-09-17T05:59:16.366Z,99.90
2022-09-17T06:01:43.449Z,99.90
2022-09-17T06:04:10.676Z,99.90
2022-09-17T06:06:39.107Z,99.90
2022-09-17T06:09:06.577Z,99.90
2022-09-17T06:11:33.707Z,99.90
2022-09-17T06:14:00.982Z,99.90
2022-09-17T06:16:28.280Z,99.90
2022-09-17T06:18:55.696Z,99.90
2022-09-17T06:21:23.225Z,99.90
2022-09-17T06:23:50.988Z,99.90
2022-09-17T06:26:18.467Z,99.90
2022-09-17T06:28:45.657Z,99.90
2022-09-17T06:31:13.139Z,99.90
2022-09-17T06:33:40.468Z,99.90
2022-09-17T06:36:13.354Z,99.90
2022-09-17T06:38:41.592Z,99.90
2022-09-17T06:41:08.926Z,99.90
2022-09-17T06:43:36.178Z,99.90
2022-09-17T06:46:06.283Z,99.90
2022-09-17T06:48:34.617Z,99.90
2022-09-17T06:51:02.916Z,99.90
2022-09-17T06:53:30.436Z,99.90
2022-09-17T06:56:05.866Z,99.90
2022-09-17T06:58:34.088Z,99.90
2022-09-17T07:01:01.902Z,99.90
2022-09-17T07:03:29.602Z,99.90
2022-09-17T07:05:57.326Z,99.90
2022-09-17T07:08:24.517Z,99.90
2022-09-17T07:10:52.267Z,99.90
2022-09-17T07:13:19.456Z,99.90
2022-09-17T07:15:52.617Z,99.90
2022-09-17T07:18:19.819Z,99.90
2022-09-17T07:20:53.826Z,99.90
2022-09-17T07:23:22.394Z,99.90
2022-09-17T07:25:56.926Z,99.90
2022-09-17T07:28:24.647Z,99.90
2022-09-17T07:30:52.484Z,99.90
2022-09-17T07:33:23.408Z,99.90
2022-09-17T07:35:57.668Z,99.90
2022-09-17T07:38:25.356Z,99.90
2022-09-17T07:40:58.598Z,99.90
2022-09-17T07:43:29.195Z,99.90
2022-09-17T07:45:57.466Z,99.90
2022-09-17T07:48:25.057Z,99.90
2022-09-17T07:50:52.332Z,99.50
2022-09-17T07:53:19.806Z,99.20
2022-09-17T07:55:57.149Z,98.40
2022-09-17T07:58:28.287Z,98.30
2022-09-17T08:01:00.386Z,97.90
2022-09-17T08:03:27.516Z,97.30
2022-09-17T08:05:55.006Z,96.50
2022-09-17T08:08:22.156Z,96.10
2022-09-17T08:10:49.246Z,95.50
2022-09-17T08:13:16.416Z,95.20
2022-09-17T08:15:43.585Z,94.70
2022-09-17T08:18:10.808Z,94.10
2022-09-17T08:20:37.906Z,93.60
2022-09-17T08:23:05.047Z,92.70
2022-09-17T08:25:32.146Z,93.10
2022-09-17T08:27:59.328Z,92.60
2022-09-17T08:30:26.578Z,92.80
2022-09-17T08:32:55.566Z,92.40
2022-09-17T08:35:22.755Z,91.60
2022-09-17T08:37:49.947Z,90.70
2022-09-17T08:40:21.162Z,90.90
2022-09-17T08:42:55.166Z,90.10
2022-09-17T08:45:22.577Z,88.50
2022-09-17T08:47:50.178Z,87.70
2022-09-17T08:50:25.747Z,85.90
2022-09-17T08:53:11.788Z,85.10
2022-09-17T08:55:57.696Z,83.50
2022-09-17T08:58:43.338Z,83.60
2022-09-17T09:01:22.403Z,81.50
2022-09-17T09:04:08.336Z,80.70
2022-09-17T09:06:38.146Z,79.20
2022-09-17T09:09:06.897Z,78.70
2022-09-17T09:11:34.707Z,77.20
2022-09-17T09:14:07.202Z,75.70
2022-09-17T09:16:37.755Z,74.50
2022-09-17T09:19:24.887Z,73.90
2022-09-17T09:22:02.050Z,73.00
2022-09-17T09:24:45.976Z,71.30
2022-09-17T09:27:13.416Z,71.30
2022-09-17T09:29:56.996Z,68.80
2022-09-17T09:32:24.156Z,68.20
2022-09-17T09:34:51.707Z,67.20
2022-09-17T09:37:31.488Z,66.00
2022-09-17T09:40:23.102Z,65.10
2022-09-17T09:42:51.694Z,64.30
2022-09-17T09:45:23.756Z,64.00
2022-09-17T09:48:01.467Z,63.30
2022-09-17T09:50:48.350Z,63.80
2022-09-17T09:53:15.902Z,62.20
2022-09-17T09:55:58.517Z,61.80
2022-09-17T09:58:25.810Z,61.60
2022-09-17T10:00:52.947Z,61.00
2022-09-17T10:03:21.966Z,60.20
2022-09-17T10:06:12.436Z,59.10
2022-09-17T10:08:40.916Z,59.00
2022-09-17T10:11:13.850Z,58.60
2022-09-17T10:13:41.862Z,58.90
2022-09-17T10:16:23.169Z,58.80
2022-09-17T10:18:51.607Z,59.70
2022-09-17T10:21:23.528Z,59.30
2022-09-17T10:23:51.060Z,57.40
2022-09-17T10:26:26.297Z,57.10
2022-09-17T10:28:58.905Z,57.60
2022-09-17T10:31:26.209Z,56.30
2022-09-17T10:34:03.246Z,56.20
2022-09-17T10:36:40.997Z,55.70
2022-09-17T10:39:26.826Z,55.70
2022-09-17T10:41:57.969Z,54.80
2022-09-17T10:44:35.267Z,55.00
2022-09-17T10:47:07.079Z,54.60
2022-09-17T10:49:34.337Z,54.20
2022-09-17T10:52:24.138Z,54.60
2022-09-17T10:55:00.587Z,55.20
2022-09-17T10:57:36.216Z,53.80
2022-09-17T11:00:04.856Z,53.60
2022-09-17T11:02:34.921Z,54.40
2022-09-17T11:05:02.636Z,53.70
2022-09-17T11:07:29.726Z,52.70
2022-09-17T11:10:03.972Z,52.40
2022-09-17T11:12:31.126Z,53.70
2022-09-17T11:15:07.536Z,53.20
2022-09-17T11:17:53.356Z,53.40
2022-09-17T11:20:38.916Z,53.20
2022-09-17T11:23:05.996Z,53.30
2022-09-17T11:25:39.258Z,51.40
2022-09-17T11:28:07.839Z,52.10
2022-09-17T11:30:49.757Z,52.00
2022-09-17T11:33:23.144Z,52.60
2022-09-17T11:36:00.281Z,50.40
2022-09-17T11:38:48.800Z,50.70
2022-09-17T11:41:18.906Z,50.70
2022-09-17T11:43:49.077Z,50.70
2022-09-17T11:46:21.972Z,50.20
2022-09-17T11:48:52.157Z,49.80
2022-09-17T11:51:24.897Z,50.50
2022-09-17T11:53:57.166Z,50.40
2022-09-17T11:56:24.294Z,50.50
2022-09-17T11:58:57.196Z,50.30
2022-09-17T12:01:43.149Z,49.50
2022-09-17T12:04:18.017Z,48.00
2022-09-17T12:06:49.408Z,47.70
2022-09-17T12:09:20.096Z,49.00
2022-09-17T12:11:47.256Z,48.90
2022-09-17T12:14:18.267Z,48.80
2022-09-17T12:16:47.522Z,50.10
2022-09-17T12:19:36.887Z,49.70
2022-09-17T12:22:09.626Z,48.10
2022-09-17T12:24:36.876Z,49.60
2022-09-17T12:27:17.733Z,49.30
2022-09-17T12:30:03.696Z,49.40
2022-09-17T12:32:47.676Z,49.40
2022-09-17T12:35:20.046Z,49.30
2022-09-17T12:38:07.466Z,49.40
2022-09-17T12:40:40.792Z,49.60
2022-09-17T12:43:10.794Z,48.90
2022-09-17T12:45:40.996Z,48.80
2022-09-17T12:48:27.358Z,48.60
2022-09-17T12:51:06.576Z,49.10
2022-09-17T12:53:44.356Z,48.10
2022-09-17T12:56:14.373Z,47.60
2022-09-17T12:58:44.526Z,47.80
2022-09-17T13:01:32.257Z,47.90
2022-09-17T13:04:14.857Z,48.80
2022-09-17T13:06:53.976Z,48.40
2022-09-17T13:09:40.459Z,49.60
2022-09-17T13:12:13.956Z,48.80
2022-09-17T13:14:50.286Z,48.80
2022-09-17T13:17:36.147Z,48.70
2022-09-17T13:20:11.838Z,48.60
2022-09-17T13:22:49.136Z,47.90
2022-09-17T13:25:17.976Z,48.50
2022-09-17T13:27:45.506Z,48.60
2022-09-17T13:30:13.436Z,48.00
2022-09-17T13:32:40.667Z,47.90
2022-09-17T13:35:10.696Z,47.50
2022-09-17T13:38:04.277Z,47.40
2022-09-17T13:40:33.066Z,47.10
2022-09-17T13:43:09.422Z,47.20
2022-09-17T13:45:56.866Z,47.30
2022-09-17T13:48:25.866Z,47.40
2022-09-17T13:50:53.741Z,47.20
2022-09-17T13:53:27.183Z,47.30
2022-09-17T13:55:55.456Z,47.50
2022-09-17T13:58:25.056Z,47.70
2022-09-17T14:00:56.857Z,47.80
2022-09-17T14:03:40.750Z,48.70
2022-09-17T14:06:08.682Z,47.90
2022-09-17T14:08:44.854Z,48.30
2022-09-17T14:11:38.436Z,48.20
2022-09-17T14:14:05.574Z,48.00
2022-09-17T14:16:37.616Z,48.10
2022-09-17T14:19:18.182Z,48.30
2022-09-17T14:22:03.958Z,48.00
2022-09-17T14:24:46.785Z,48.30
2022-09-17T14:27:25.857Z,47.70
2022-09-17T14:30:03.085Z,47.60
2022-09-17T14:32:34.397Z,48.10
2022-09-17T14:35:16.599Z,48.30
2022-09-17T14:37:48.646Z,48.40
2022-09-17T14:40:18.346Z,48.60
2022-09-17T14:42:45.919Z,48.60
2022-09-17T14:45:17.856Z,48.50
2022-09-17T14:47:45.070Z,49.00
2022-09-17T14:50:25.526Z,49.00
2022-09-17T14:52:53.896Z,49.30
2022-09-17T14:55:22.297Z,49.80
2022-09-17T14:57:56.688Z,49.70
2022-09-17T15:00:25.258Z,49.40
2022-09-17T15:02:56.408Z,48.90
2022-09-17T15:05:34.353Z,49.20
2022-09-17T15:08:10.596Z,49.70
2022-09-17T15:10:49.256Z,49.80
2022-09-17T15:13:27.337Z,49.90
2022-09-17T15:15:57.503Z,49.90
2022-09-17T15:18:30.148Z,50.40
2022-09-17T15:20:58.626Z,49.80
2022-09-17T15:23:28.149Z,49.90
2022-09-17T15:25:57.596Z,50.40
2022-09-17T15:28:29.959Z,50.60
2022-09-17T15:30:57.308Z,49.60
2022-09-17T15:33:24.807Z,50.20
2022-09-17T15:36:21.989Z,50.30
2022-09-17T15:38:50.387Z,50.50
2022-09-17T15:41:34.026Z,50.60
2022-09-17T15:44:29.876Z,50.60
2022-09-17T15:47:17.797Z,51.50
2022-09-17T15:50:03.856Z,50.90
2022-09-17T15:52:34.316Z,50.20
2022-09-17T15:55:01.587Z,50.20
2022-09-17T15:57:29.935Z,50.10
2022-09-17T16:00:05.608Z,50.20
2022-09-17T16:02:33.414Z,50.80
2022-09-17T16:05:09.900Z,50.40
2022-09-17T16:07:36.929Z,50.60
2022-09-17T16:10:04.073Z,50.80
2022-09-17T16:12:31.210Z,51.20
2022-09-17T16:15:00.847Z,51.30
2022-09-17T16:17:35.739Z,51.30
2022-09-17T16:20:12.071Z,51.50
2022-09-17T16:22:39.439Z,51.30
2022-09-17T16:25:06.623Z,51.10
2022-09-17T16:27:38.519Z,51.00
2022-09-17T16:30:09.205Z,51.10
2022-09-17T16:32:36.347Z,51.00
2022-09-17T16:35:03.480Z,51.30
2022-09-17T16:37:30.530Z,51.50
2022-09-17T16:39:57.616Z,52.40
2022-09-17T16:45:06.842Z,52.40
2022-09-17T16:47:34.631Z,52.40
2022-09-17T16:50:01.668Z,52.70
2022-09-17T16:52:28.743Z,52.60
2022-09-17T16:54:55.802Z,53.10
2022-09-17T16:57:22.779Z,52.90
2022-09-17T16:59:49.888Z,53.30
2022-09-17T17:02:16.840Z,53.60
2022-09-17T17:04:43.930Z,53.90
2022-09-17T17:07:10.919Z,53.80
2022-09-17T17:09:38.279Z,53.10
2022-09-17T17:12:05.460Z,53.60
2022-09-17T17:14:32.529Z,53.40
2022-09-17T17:16:59.959Z,53.70
2022-09-17T17:19:27.213Z,54.00
2022-09-17T17:21:54.250Z,53.90
2022-09-17T17:24:21.311Z,54.30
2022-09-17T17:26:48.610Z,54.10
2022-09-17T17:29:16.959Z,54.10
2022-09-17T17:31:44.017Z,54.20
2022-09-17T17:34:11.129Z,54.70
2022-09-17T17:36:38.220Z,54.60
2022-09-17T17:39:05.290Z,54.50
2022-09-17T17:41:32.330Z,54.60
2022-09-17T17:43:59.369Z,54.60
2022-09-17T17:46:26.420Z,55.00
2022-09-17T17:48:53.519Z,54.80
2022-09-17T17:54:01.410Z,54.70
2022-09-17T17:56:28.490Z,55.50
2022-09-17T17:58:56.549Z,55.30
2022-09-17T18:01:24.887Z,55.50
2022-09-17T18:03:56.070Z,55.50
2022-09-17T18:09:04.670Z,56.20
2022-09-17T18:11:32.429Z,56.40
2022-09-17T18:14:01.122Z,56.40
2022-09-17T18:16:28.357Z,56.40
2022-09-17T18:18:56.572Z,57.30
2022-09-17T18:21:24.179Z,56.60
2022-09-17T18:23:51.479Z,56.70
2022-09-17T18:26:22.869Z,56.60
2022-09-17T18:28:50.026Z,56.50
2022-09-17T18:31:26.059Z,56.60
2022-09-17T18:33:59.773Z,56.90
2022-09-17T18:36:28.010Z,56.90
2022-09-17T18:38:57.179Z,56.90
2022-09-17T18:41:48.250Z,57.10
2022-09-17T18:44:22.051Z,57.30
2022-09-17T18:46:50.355Z,57.10
2022-09-17T18:49:26.469Z,57.50
2022-09-17T18:52:05.621Z,57.60
2022-09-17T18:54:47.949Z,57.60
2022-09-17T18:57:15.070Z,57.90
2022-09-17T18:59:42.089Z,57.70
2022-09-17T19:02:11.880Z,58.00
2022-09-17T19:04:39.390Z,58.30
2022-09-17T19:09:47.630Z,58.20
2022-09-17T19:12:14.610Z,58.60
2022-09-17T19:14:41.649Z,58.60
2022-09-17T19:17:09.371Z,58.40
2022-09-17T19:19:36.509Z,58.40
2022-09-17T19:22:03.582Z,58.70
2022-09-17T19:24:30.729Z,58.60
2022-09-17T19:26:58.951Z,58.20
2022-09-17T19:29:26.332Z,58.20
2022-09-17T19:31:53.389Z,58.40
2022-09-17T19:34:21.912Z,59.00
2022-09-17T19:36:48.869Z,59.50
2022-09-17T19:39:17.801Z,59.70
2022-09-17T19:41:44.770Z,59.70
2022-09-17T19:44:11.798Z,59.70
2022-09-17T19:46:38.838Z,59.80
2022-09-17T19:49:05.950Z,60.30
2022-09-17T19:51:33.980Z,60.80
2022-09-17T19:54:01.053Z,61.30
2022-09-17T19:56:28.089Z,61.30
2022-09-17T19:58:55.328Z,61.60
2022-09-17T20:01:22.518Z,61.70
2022-09-17T20:03:49.559Z,62.50
2022-09-17T20:06:17.909Z,62.40
2022-09-17T20:08:48.851Z,62.60
2022-09-17T20:11:22.390Z,62.70
2022-09-17T20:14:08.010Z,63.40
2022-09-17T20:16:36.131Z,62.90
2022-09-17T20:19:03.329Z,62.50
2022-09-17T20:21:31.202Z,62.00
2022-09-17T20:23:58.769Z,62.40
2022-09-17T20:26:26.489Z,62.70
2022-09-17T20:28:54.070Z,62.80
2022-09-17T20:31:25.862Z,63.30
2022-09-17T20:33:54.435Z,63.40
2022-09-17T20:36:22.932Z,63.70
2022-09-17T20:41:38.229Z,63.80
2022-09-17T20:44:06.170Z,64.10
2022-09-17T20:46:33.297Z,63.90
2022-09-17T20:49:00.442Z,64.00
2022-09-17T20:51:28.768Z,63.50
2022-09-17T20:53:57.458Z,63.30
2022-09-17T20:56:28.800Z,63.80
2022-09-17T20:59:03.468Z,64.00
2022-09-17T21:01:34.697Z,64.00
2022-09-17T21:04:02.267Z,63.80
2022-09-17T21:06:30.371Z,64.00
2022-09-17T21:08:58.063Z,64.30
2022-09-17T21:11:25.029Z,64.50
2022-09-17T21:13:52.389Z,64.70
2022-09-17T21:16:19.505Z,65.00
2022-09-17T21:18:46.873Z,65.20
2022-09-17T21:21:15.093Z,65.20
2022-09-17T21:23:42.939Z,65.30
2022-09-17T21:26:14.342Z,65.60
2022-09-17T21:28:42.109Z,65.70
2022-09-17T21:31:22.350Z,65.70
2022-09-17T21:33:52.640Z,66.10
2022-09-17T21:36:20.920Z,66.00
2022-09-17T21:38:51.989Z,66.40
2022-09-17T21:41:19.380Z,66.50
2022-09-17T21:43:46.489Z,67.00
2022-09-17T21:46:15.175Z,67.00
2022-09-17T21:48:46.129Z,67.00
2022-09-17T21:56:38.540Z,67.40
2022-09-17T21:59:07.154Z,67.90
2022-09-17T22:01:40.716Z,68.20
2022-09-17T22:04:09.344Z,68.60
2022-09-17T22:06:37.038Z,68.60
2022-09-17T22:09:04.865Z,68.80
2022-09-17T22:11:36.469Z,68.70
2022-09-17T22:14:11.120Z,68.70
2022-09-17T22:16:39.954Z,68.90
2022-09-17T22:19:07.555Z,68.70
2022-09-17T22:21:36.374Z,68.90
2022-09-17T22:24:04.184Z,68.70
2022-09-17T22:26:32.504Z,68.90
2022-09-17T22:29:04.085Z,69.10
2022-09-17T22:31:31.508Z,69.10
2022-09-17T22:33:58.875Z,69.20
2022-09-17T22:36:26.775Z,69.20
2022-09-17T22:38:58.457Z,69.40
2022-09-17T22:41:26.985Z,69.50
2022-09-17T22:43:54.875Z,69.50
2022-09-17T22:46:23.875Z,69.70
2022-09-17T22:48:51.812Z,70.20
2022-09-17T22:51:19.105Z,70.20
2022-09-17T22:53:46.335Z,70.50
2022-09-17T22:56:15.034Z,70.60
2022-09-17T22:58:42.594Z,70.80
2022-09-17T23:01:12.062Z,70.80
2022-09-17T23:03:40.177Z,70.80
2022-09-17T23:06:17.534Z,71.00
2022-09-17T23:08:44.715Z,71.20
2022-09-17T23:11:22.524Z,71.20
2022-09-17T23:13:50.195Z,71.40
2022-09-17T23:16:17.840Z,71.60
2022-09-17T23:18:45.404Z,71.90
2022-09-17T23:21:13.974Z,71.90
2022-09-17T23:23:41.775Z,72.20
2022-09-17T23:26:11.548Z,72.30
2022-09-17T23:28:38.925Z,72.50
2022-09-17T23:31:07.021Z,72.60
2022-09-17T23:33:34.544Z,72.60
2022-09-17T23:36:15.234Z,72.40
2022-09-17T23:38:43.985Z,72.80
2022-09-17T23:41:31.935Z,72.80
2022-09-17T23:44:00.514Z,72.90
2022-09-17T23:46:28.724Z,73.20
2022-09-17T23:48:56.024Z,73.20
2022-09-17T23:51:24.184Z,73.30
2022-09-17T23:53:51.835Z,73.20
2022-09-17T23:56:21.392Z,73.10
2022-09-17T23:58:49.296Z,73.10
